N966PW KBIL-KGTF
Flight info
| Callsign | N966PW |
|---|---|
| Flight time | 0h 51m |
| Altitude | 12000 |
| Route | BIL V187 GTF |
| Aircraft | BE58/L-SDFGRY/C |
Departure
| Time | 2026-04-26 12:06 |
|---|---|
| Airport | Billings Logan International Airport (KBIL) |
Arrival
| Time | 2026-04-26 12:57 |
|---|---|
| Airport | Great Falls International Airport (KGTF) |
| Time | Latitude | Longitude | Altitude | Speed | Heading |
|---|---|---|---|---|---|
| 2026-04-26 12:01 | 45.80795 | -108.54475 | 3560 ft | 12 kts | 286° |
| 2026-04-26 12:01 | 45.80802 | -108.54505 | 3561 ft | 0 kts | 286° |
| 2026-04-26 12:02 | 45.80806 | -108.54520 | 3562 ft | 1 kts | 293° |
| 2026-04-26 12:02 | 45.80809 | -108.54528 | 3562 ft | 4 kts | 295° |
| 2026-04-26 12:02 | 45.80858 | -108.54673 | 3569 ft | 17 kts | 295° |
| 2026-04-26 12:02 | 45.80908 | -108.54851 | 3572 ft | 21 kts | 294° |
| 2026-04-26 12:03 | 45.80978 | -108.55071 | 3577 ft | 27 kts | 289° |
| 2026-04-26 12:03 | 45.81039 | -108.55291 | 3581 ft | 20 kts | 292° |
| 2026-04-26 12:03 | 45.81079 | -108.55448 | 3578 ft | 15 kts | 291° |
| 2026-04-26 12:03 | 45.81157 | -108.55526 | 3589 ft | 15 kts | 6° |
| 2026-04-26 12:04 | 45.81177 | -108.55519 | 3589 ft | 0 kts | 18° |
| 2026-04-26 12:04 | 45.81209 | -108.55504 | 3586 ft | 12 kts | 18° |
| 2026-04-26 12:04 | 45.81248 | -108.55381 | 3586 ft | 19 kts | 114° |
| 2026-04-26 12:05 | 45.81237 | -108.55345 | 3582 ft | 0 kts | 109° |
| 2026-04-26 12:05 | 45.81123 | -108.54931 | 3572 ft | 94 kts | 112° |
| 2026-04-26 12:05 | 45.80801 | -108.53819 | 3714 ft | 137 kts | 109° |
| 2026-04-26 12:05 | 45.80420 | -108.52494 | 4185 ft | 147 kts | 110° |
| 2026-04-26 12:06 | 45.80035 | -108.51156 | 4959 ft | 142 kts | 110° |
| 2026-04-26 12:06 | 45.79681 | -108.49834 | 5568 ft | 144 kts | 110° |
| 2026-04-26 12:06 | 45.79326 | -108.48489 | 6151 ft | 147 kts | 115° |
| 2026-04-26 12:06 | 45.78602 | -108.47449 | 6657 ft | 152 kts | 162° |
| 2026-04-26 12:07 | 45.77593 | -108.47710 | 7062 ft | 160 kts | 220° |
| 2026-04-26 12:07 | 45.77220 | -108.49113 | 7590 ft | 160 kts | 276° |
| 2026-04-26 12:07 | 45.77681 | -108.50615 | 7989 ft | 163 kts | 297° |
| 2026-04-26 12:07 | 45.78234 | -108.51959 | 8697 ft | 152 kts | 302° |
| 2026-04-26 12:08 | 45.78934 | -108.53154 | 9133 ft | 163 kts | 311° |
| 2026-04-26 12:08 | 45.79695 | -108.54397 | 9543 ft | 168 kts | 303° |
| 2026-04-26 12:08 | 45.80433 | -108.55722 | 9940 ft | 173 kts | 312° |
| 2026-04-26 12:08 | 45.81272 | -108.56978 | 10309 ft | 175 kts | 309° |
| 2026-04-26 12:09 | 45.82094 | -108.58280 | 10678 ft | 177 kts | 308° |
| 2026-04-26 12:09 | 45.82922 | -108.59596 | 11057 ft | 178 kts | 308° |
| 2026-04-26 12:09 | 45.83765 | -108.60934 | 11331 ft | 185 kts | 308° |
| 2026-04-26 12:09 | 45.84649 | -108.62331 | 11531 ft | 192 kts | 308° |
| 2026-04-26 12:10 | 45.85565 | -108.63776 | 11718 ft | 198 kts | 308° |
| 2026-04-26 12:10 | 45.86501 | -108.65247 | 11900 ft | 202 kts | 308° |
| 2026-04-26 12:10 | 45.87464 | -108.66760 | 11975 ft | 209 kts | 308° |
| 2026-04-26 12:10 | 45.88462 | -108.68331 | 11992 ft | 217 kts | 309° |
| 2026-04-26 12:11 | 45.89477 | -108.69926 | 12000 ft | 221 kts | 309° |
| 2026-04-26 12:11 | 45.90524 | -108.71570 | 12005 ft | 224 kts | 309° |
| 2026-04-26 12:11 | 45.91584 | -108.73237 | 12011 ft | 227 kts | 309° |
| 2026-04-26 12:11 | 45.92649 | -108.74914 | 12015 ft | 228 kts | 309° |
| 2026-04-26 12:12 | 45.93719 | -108.76600 | 12062 ft | 229 kts | 309° |
| 2026-04-26 12:12 | 45.94791 | -108.78293 | 12062 ft | 229 kts | 309° |
| 2026-04-26 12:12 | 45.95865 | -108.79988 | 12064 ft | 230 kts | 309° |
| 2026-04-26 12:12 | 45.96574 | -108.81108 | 12064 ft | 230 kts | 309° |
| 2026-04-26 12:13 | 45.98014 | -108.83387 | 12068 ft | 230 kts | 309° |
| 2026-04-26 12:13 | 45.99091 | -108.85091 | 12068 ft | 230 kts | 309° |
| 2026-04-26 12:13 | 46.00166 | -108.86795 | 12068 ft | 230 kts | 309° |
| 2026-04-26 12:13 | 46.01240 | -108.88497 | 12076 ft | 230 kts | 309° |
| 2026-04-26 12:14 | 46.02315 | -108.90202 | 12075 ft | 230 kts | 309° |
| 2026-04-26 12:14 | 46.03389 | -108.91907 | 12072 ft | 230 kts | 309° |
| 2026-04-26 12:14 | 46.04466 | -108.93616 | 12073 ft | 230 kts | 309° |
| 2026-04-26 12:14 | 46.05541 | -108.95325 | 12071 ft | 230 kts | 309° |
| 2026-04-26 12:15 | 46.06603 | -108.97015 | 12067 ft | 231 kts | 309° |
| 2026-04-26 12:15 | 46.07719 | -108.98677 | 12067 ft | 231 kts | 313° |
| 2026-04-26 12:15 | 46.08907 | -109.00251 | 12066 ft | 232 kts | 314° |
| 2026-04-26 12:15 | 46.10099 | -109.01814 | 12066 ft | 232 kts | 314° |
| 2026-04-26 12:16 | 46.11287 | -109.03387 | 12070 ft | 232 kts | 314° |
| 2026-04-26 12:16 | 46.12469 | -109.04970 | 12069 ft | 232 kts | 313° |
| 2026-04-26 12:16 | 46.13647 | -109.06557 | 12071 ft | 232 kts | 313° |
| 2026-04-26 12:16 | 46.14822 | -109.08148 | 12067 ft | 232 kts | 313° |
| 2026-04-26 12:17 | 46.15997 | -109.09739 | 12069 ft | 232 kts | 313° |
| 2026-04-26 12:17 | 46.17173 | -109.11332 | 12070 ft | 232 kts | 313° |
| 2026-04-26 12:17 | 46.18346 | -109.12924 | 12072 ft | 232 kts | 313° |
| 2026-04-26 12:17 | 46.19523 | -109.14523 | 12067 ft | 232 kts | 313° |
| 2026-04-26 12:18 | 46.20697 | -109.16120 | 12069 ft | 232 kts | 313° |
| 2026-04-26 12:18 | 46.21869 | -109.17715 | 12066 ft | 232 kts | 313° |
| 2026-04-26 12:18 | 46.23039 | -109.19308 | 12064 ft | 231 kts | 313° |
| 2026-04-26 12:18 | 46.24210 | -109.20905 | 12064 ft | 230 kts | 313° |
| 2026-04-26 12:19 | 46.25371 | -109.22490 | 12061 ft | 230 kts | 313° |
| 2026-04-26 12:19 | 46.26519 | -109.24057 | 12062 ft | 229 kts | 313° |
| 2026-04-26 12:19 | 46.27691 | -109.25658 | 12061 ft | 229 kts | 313° |
| 2026-04-26 12:19 | 46.28831 | -109.27218 | 12059 ft | 229 kts | 313° |
| 2026-04-26 12:20 | 46.29982 | -109.28801 | 12060 ft | 228 kts | 313° |
| 2026-04-26 12:20 | 46.31126 | -109.30383 | 12059 ft | 227 kts | 313° |
| 2026-04-26 12:20 | 46.32269 | -109.31958 | 12056 ft | 227 kts | 313° |
| 2026-04-26 12:20 | 46.33425 | -109.33549 | 12057 ft | 226 kts | 313° |
| 2026-04-26 12:21 | 46.34568 | -109.35121 | 12059 ft | 226 kts | 313° |
| 2026-04-26 12:21 | 46.35710 | -109.36684 | 12063 ft | 226 kts | 313° |
| 2026-04-26 12:21 | 46.36850 | -109.38245 | 12059 ft | 225 kts | 313° |
| 2026-04-26 12:21 | 46.37985 | -109.39802 | 12059 ft | 224 kts | 313° |
| 2026-04-26 12:22 | 46.39104 | -109.41336 | 12052 ft | 224 kts | 313° |
| 2026-04-26 12:22 | 46.40236 | -109.42892 | 12051 ft | 224 kts | 313° |
| 2026-04-26 12:22 | 46.41370 | -109.44449 | 12053 ft | 225 kts | 313° |
| 2026-04-26 12:22 | 46.42506 | -109.46008 | 12052 ft | 225 kts | 313° |
| 2026-04-26 12:23 | 46.43644 | -109.47573 | 12053 ft | 226 kts | 313° |
| 2026-04-26 12:23 | 46.44787 | -109.49147 | 12052 ft | 227 kts | 313° |
| 2026-04-26 12:23 | 46.45937 | -109.50724 | 12048 ft | 228 kts | 313° |
| 2026-04-26 12:23 | 46.47093 | -109.52302 | 12046 ft | 229 kts | 313° |
| 2026-04-26 12:24 | 46.48250 | -109.53890 | 12046 ft | 230 kts | 313° |
| 2026-04-26 12:24 | 46.49410 | -109.55486 | 12043 ft | 230 kts | 313° |
| 2026-04-26 12:24 | 46.50573 | -109.57089 | 12045 ft | 231 kts | 313° |
| 2026-04-26 12:25 | 46.52884 | -109.60282 | 12049 ft | 231 kts | 313° |
| 2026-04-26 12:25 | 46.54050 | -109.61896 | 12050 ft | 231 kts | 313° |
| 2026-04-26 12:25 | 46.55214 | -109.63511 | 12047 ft | 231 kts | 313° |
| 2026-04-26 12:25 | 46.56378 | -109.65129 | 12046 ft | 231 kts | 313° |
| 2026-04-26 12:26 | 46.57539 | -109.66748 | 12047 ft | 231 kts | 313° |
| 2026-04-26 12:26 | 46.58698 | -109.68381 | 12044 ft | 231 kts | 312° |
| 2026-04-26 12:26 | 46.59851 | -109.70005 | 12048 ft | 231 kts | 313° |
| 2026-04-26 12:26 | 46.61010 | -109.71629 | 12047 ft | 231 kts | 313° |
| 2026-04-26 12:27 | 46.62171 | -109.73249 | 12044 ft | 231 kts | 313° |
| 2026-04-26 12:27 | 46.63332 | -109.74865 | 12046 ft | 231 kts | 313° |
| 2026-04-26 12:27 | 46.64492 | -109.76482 | 12048 ft | 231 kts | 313° |
| 2026-04-26 12:27 | 46.65637 | -109.78082 | 12045 ft | 231 kts | 313° |
| 2026-04-26 12:28 | 46.66798 | -109.79702 | 12050 ft | 231 kts | 313° |
| 2026-04-26 12:28 | 46.67961 | -109.81323 | 12050 ft | 231 kts | 313° |
| 2026-04-26 12:28 | 46.69121 | -109.82942 | 12049 ft | 231 kts | 313° |
| 2026-04-26 12:28 | 46.70284 | -109.84570 | 12051 ft | 232 kts | 313° |
| 2026-04-26 12:29 | 46.71444 | -109.86202 | 12044 ft | 231 kts | 313° |
| 2026-04-26 12:29 | 46.72598 | -109.87821 | 12044 ft | 230 kts | 313° |
| 2026-04-26 12:29 | 46.74914 | -109.91061 | 12057 ft | 231 kts | 313° |
| 2026-04-26 12:30 | 46.76073 | -109.92682 | 12051 ft | 231 kts | 313° |
| 2026-04-26 12:30 | 46.77234 | -109.94309 | 12052 ft | 231 kts | 313° |
| 2026-04-26 12:30 | 46.78393 | -109.95938 | 12053 ft | 232 kts | 313° |
| 2026-04-26 12:31 | 46.80708 | -109.99179 | 12053 ft | 232 kts | 313° |
| 2026-04-26 12:31 | 46.81872 | -110.00812 | 12057 ft | 232 kts | 313° |
| 2026-04-26 12:31 | 46.83035 | -110.02448 | 12053 ft | 232 kts | 313° |
| 2026-04-26 12:31 | 46.84197 | -110.04090 | 12056 ft | 232 kts | 313° |
| 2026-04-26 12:32 | 46.85363 | -110.05733 | 12055 ft | 232 kts | 313° |
| 2026-04-26 12:32 | 46.86524 | -110.07374 | 12059 ft | 232 kts | 313° |
| 2026-04-26 12:32 | 46.88503 | -110.11069 | 12060 ft | 230 kts | 301° |
| 2026-04-26 12:33 | 46.89378 | -110.13032 | 12058 ft | 230 kts | 301° |
| 2026-04-26 12:33 | 46.90249 | -110.14999 | 12054 ft | 230 kts | 301° |
| 2026-04-26 12:33 | 46.91111 | -110.16937 | 12052 ft | 230 kts | 301° |
| 2026-04-26 12:33 | 46.91997 | -110.18924 | 12060 ft | 230 kts | 301° |
| 2026-04-26 12:34 | 46.92871 | -110.20890 | 12060 ft | 230 kts | 301° |
| 2026-04-26 12:34 | 46.93743 | -110.22860 | 12058 ft | 230 kts | 301° |
| 2026-04-26 12:34 | 46.94613 | -110.24829 | 12058 ft | 230 kts | 301° |
| 2026-04-26 12:34 | 46.95471 | -110.26771 | 12058 ft | 230 kts | 301° |
| 2026-04-26 12:35 | 46.96341 | -110.28741 | 12057 ft | 230 kts | 301° |
| 2026-04-26 12:35 | 46.97211 | -110.30713 | 12057 ft | 230 kts | 301° |
| 2026-04-26 12:35 | 46.98079 | -110.32679 | 12050 ft | 230 kts | 301° |
| 2026-04-26 12:35 | 46.98943 | -110.34646 | 12059 ft | 229 kts | 300° |
| 2026-04-26 12:36 | 46.99802 | -110.36614 | 12060 ft | 229 kts | 301° |
| 2026-04-26 12:36 | 47.00665 | -110.38577 | 12064 ft | 230 kts | 301° |
| 2026-04-26 12:36 | 47.01531 | -110.40542 | 12057 ft | 229 kts | 300° |
| 2026-04-26 12:36 | 47.02393 | -110.42505 | 12064 ft | 229 kts | 301° |
| 2026-04-26 12:37 | 47.03257 | -110.44472 | 12061 ft | 230 kts | 301° |
| 2026-04-26 12:37 | 47.04121 | -110.46441 | 12060 ft | 230 kts | 301° |
| 2026-04-26 12:37 | 47.04985 | -110.48417 | 12061 ft | 230 kts | 300° |
| 2026-04-26 12:37 | 47.05854 | -110.50401 | 12059 ft | 231 kts | 301° |
| 2026-04-26 12:38 | 47.06720 | -110.52382 | 12064 ft | 231 kts | 300° |
| 2026-04-26 12:38 | 47.07587 | -110.54359 | 12061 ft | 230 kts | 301° |
| 2026-04-26 12:38 | 47.08456 | -110.56333 | 12061 ft | 231 kts | 301° |
| 2026-04-26 12:38 | 47.09323 | -110.58314 | 12058 ft | 231 kts | 301° |
| 2026-04-26 12:39 | 47.10176 | -110.60269 | 12055 ft | 230 kts | 300° |
| 2026-04-26 12:39 | 47.11041 | -110.62255 | 12063 ft | 231 kts | 300° |
| 2026-04-26 12:39 | 47.11906 | -110.64241 | 12060 ft | 231 kts | 300° |
| 2026-04-26 12:39 | 47.12775 | -110.66239 | 12060 ft | 231 kts | 301° |
| 2026-04-26 12:40 | 47.13659 | -110.68210 | 12062 ft | 231 kts | 302° |
| 2026-04-26 12:40 | 47.14550 | -110.70175 | 12059 ft | 231 kts | 302° |
| 2026-04-26 12:40 | 47.15431 | -110.72143 | 12052 ft | 230 kts | 301° |
| 2026-04-26 12:40 | 47.16302 | -110.74119 | 12021 ft | 231 kts | 301° |
| 2026-04-26 12:41 | 47.17176 | -110.76125 | 11894 ft | 235 kts | 300° |
| 2026-04-26 12:41 | 47.17715 | -110.78361 | 11759 ft | 233 kts | 279° |
| 2026-04-26 12:41 | 47.17937 | -110.80732 | 11629 ft | 234 kts | 275° |
| 2026-04-26 12:41 | 47.18093 | -110.83115 | 11501 ft | 234 kts | 274° |
| 2026-04-26 12:42 | 47.18223 | -110.85475 | 11377 ft | 235 kts | 273° |
| 2026-04-26 12:42 | 47.18344 | -110.87872 | 11248 ft | 235 kts | 273° |
| 2026-04-26 12:42 | 47.18460 | -110.90264 | 11123 ft | 235 kts | 273° |
| 2026-04-26 12:42 | 47.18573 | -110.92658 | 10994 ft | 234 kts | 273° |
| 2026-04-26 12:43 | 47.18683 | -110.95039 | 10864 ft | 234 kts | 273° |
| 2026-04-26 12:43 | 47.18790 | -110.97419 | 10735 ft | 233 kts | 273° |
| 2026-04-26 12:43 | 47.18897 | -110.99797 | 10606 ft | 232 kts | 273° |
| 2026-04-26 12:43 | 47.19003 | -111.02159 | 10482 ft | 232 kts | 273° |
| 2026-04-26 12:44 | 47.19108 | -111.04520 | 10359 ft | 231 kts | 273° |
| 2026-04-26 12:44 | 47.19214 | -111.06874 | 10234 ft | 230 kts | 273° |
| 2026-04-26 12:44 | 47.19319 | -111.09217 | 10130 ft | 229 kts | 273° |
| 2026-04-26 12:44 | 47.19419 | -111.11547 | 10071 ft | 227 kts | 273° |
| 2026-04-26 12:45 | 47.19516 | -111.13840 | 10050 ft | 224 kts | 273° |
| 2026-04-26 12:45 | 47.19613 | -111.16116 | 10040 ft | 222 kts | 273° |
| 2026-04-26 12:45 | 47.19708 | -111.18373 | 10035 ft | 220 kts | 273° |
| 2026-04-26 12:45 | 47.19802 | -111.20616 | 10032 ft | 219 kts | 273° |
| 2026-04-26 12:46 | 47.19897 | -111.22843 | 10034 ft | 218 kts | 273° |
| 2026-04-26 12:46 | 47.19993 | -111.25066 | 10033 ft | 218 kts | 273° |
| 2026-04-26 12:46 | 47.20089 | -111.27286 | 10033 ft | 218 kts | 273° |
| 2026-04-26 12:46 | 47.20180 | -111.29506 | 10032 ft | 218 kts | 271° |
| 2026-04-26 12:47 | 47.20107 | -111.31731 | 10032 ft | 218 kts | 265° |
| 2026-04-26 12:47 | 47.19955 | -111.33950 | 10032 ft | 218 kts | 263° |
| 2026-04-26 12:47 | 47.19777 | -111.36169 | 10034 ft | 219 kts | 262° |
| 2026-04-26 12:47 | 47.19588 | -111.38389 | 10033 ft | 219 kts | 262° |
| 2026-04-26 12:48 | 47.19394 | -111.40611 | 10034 ft | 219 kts | 262° |
| 2026-04-26 12:48 | 47.19199 | -111.42824 | 10034 ft | 218 kts | 262° |
| 2026-04-26 12:48 | 47.19001 | -111.45033 | 10035 ft | 218 kts | 262° |
| 2026-04-26 12:48 | 47.18805 | -111.47239 | 10036 ft | 217 kts | 262° |
| 2026-04-26 12:49 | 47.18734 | -111.49439 | 10002 ft | 218 kts | 280° |
| 2026-04-26 12:49 | 47.19272 | -111.51510 | 9854 ft | 222 kts | 295° |
| 2026-04-26 12:49 | 47.19994 | -111.53567 | 9689 ft | 225 kts | 298° |
| 2026-04-26 12:49 | 47.20750 | -111.55591 | 9528 ft | 226 kts | 298° |
| 2026-04-26 12:50 | 47.21513 | -111.57577 | 9371 ft | 226 kts | 299° |
| 2026-04-26 12:50 | 47.22307 | -111.59568 | 9204 ft | 225 kts | 304° |
| 2026-04-26 12:50 | 47.23516 | -111.60957 | 9119 ft | 223 kts | 339° |
| 2026-04-26 12:50 | 47.25035 | -111.61504 | 8824 ft | 227 kts | 349° |
| 2026-04-26 12:51 | 47.26597 | -111.61880 | 8555 ft | 226 kts | 351° |
| 2026-04-26 12:51 | 47.28135 | -111.62201 | 8444 ft | 220 kts | 353° |
| 2026-04-26 12:51 | 47.29595 | -111.61974 | 8390 ft | 205 kts | 24° |
| 2026-04-26 12:51 | 47.30666 | -111.60708 | 8332 ft | 194 kts | 46° |
| 2026-04-26 12:52 | 47.31622 | -111.59299 | 8054 ft | 196 kts | 43° |
| 2026-04-26 12:52 | 47.32659 | -111.57972 | 7737 ft | 198 kts | 39° |
| 2026-04-26 12:52 | 47.33737 | -111.56707 | 7425 ft | 198 kts | 38° |
| 2026-04-26 12:52 | 47.34461 | -111.55889 | 7203 ft | 197 kts | 37° |
| 2026-04-26 12:53 | 47.35549 | -111.54675 | 6898 ft | 195 kts | 37° |
| 2026-04-26 12:53 | 47.36615 | -111.53453 | 6589 ft | 193 kts | 39° |
| 2026-04-26 12:53 | 47.37633 | -111.52179 | 6302 ft | 190 kts | 42° |
| 2026-04-26 12:53 | 47.38563 | -111.50878 | 6144 ft | 178 kts | 45° |
| 2026-04-26 12:54 | 47.39395 | -111.49605 | 6011 ft | 169 kts | 47° |
| 2026-04-26 12:54 | 47.40191 | -111.48320 | 5755 ft | 170 kts | 49° |
| 2026-04-26 12:54 | 47.40992 | -111.47049 | 5505 ft | 169 kts | 47° |
| 2026-04-26 12:54 | 47.41820 | -111.45821 | 5274 ft | 168 kts | 45° |
| 2026-04-26 12:55 | 47.42658 | -111.44639 | 5035 ft | 162 kts | 44° |
| 2026-04-26 12:55 | 47.43455 | -111.43526 | 4761 ft | 154 kts | 44° |
| 2026-04-26 12:55 | 47.44217 | -111.42448 | 4492 ft | 149 kts | 44° |
| 2026-04-26 12:55 | 47.44961 | -111.41405 | 4243 ft | 145 kts | 43° |
| 2026-04-26 12:56 | 47.45694 | -111.40390 | 4020 ft | 143 kts | 44° |
| 2026-04-26 12:56 | 47.46298 | -111.39429 | 3860 ft | 111 kts | 49° |
| 2026-04-26 12:56 | 47.46768 | -111.38637 | 3727 ft | 95 kts | 45° |
| 2026-04-26 12:56 | 47.47194 | -111.38011 | 3673 ft | 72 kts | 45° |
| 2026-04-26 12:57 | 47.47469 | -111.37601 | 3673 ft | 43 kts | 50° |
| 2026-04-26 12:57 | 47.47515 | -111.37367 | 3671 ft | 14 kts | 133° |
| 2026-04-26 12:57 | 47.47506 | -111.37354 | 3671 ft | 0 kts | 133° |
| 2026-04-26 12:58 | 47.47496 | -111.37308 | 3672 ft | 14 kts | 104° |
| 2026-04-26 12:58 | 47.47574 | -111.37164 | 3671 ft | 19 kts | 41° |
| 2026-04-26 12:58 | 47.47691 | -111.36986 | 3670 ft | 26 kts | 42° |
| 2026-04-26 12:58 | 47.47750 | -111.36801 | 3670 ft | 16 kts | 65° |
| 2026-04-26 12:59 | 47.47758 | -111.36783 | 3670 ft | 0 kts | 43° |